Archival Weather

Chicago O'Hare International

Chicago, Illinois (KORD)

Report from: Wednesday, November 23, 2022 8:51 AM CST
Current time: Monday, July 22, 2024 6:35 AM CDT

Current weather – Weather history – Daily summaries
Weather forecast

Temperature5.0°C (41.0°F)
Wind chill1.8°C (35.2°F)
Dew point-0.6°C (30.9°F)
Winds 8 kts (4.1 m/s, 9.2 mph) South-Southwest (210°)
Visibility10 mi. (16.1 km)
Clouds Few clouds 20,000 ft. (6,096 m)
Altimeter30.16 in.Hg (1021 mB)
Relative humidity67 %
Density altitude-1,409 ft. (-430 m)
Sea-level pressure102.2 kPa (1022 mB, 30.17 in.Hg)
Remarks Automated weather observing station with precipitation discriminator
Pressure rising more slowly
Flight conditions Visual Meteorological Conditions
Raw dataKORD 231451Z 21008KT 10SM FEW200 05/M01 A3016 RMK AO2 SLP218 T00501006 51010
An error has occurred. This application may no longer respond until reloaded. Reload 🗙